createdAt,value
2017-06-15T00:00:02.457Z,13.30
2017-06-15T00:02:30.027Z,13.30
2017-06-15T00:04:57.604Z,13.30
2017-06-15T00:07:25.169Z,13.20
2017-06-15T00:09:53.097Z,13.20
2017-06-15T00:12:25.430Z,13.20
2017-06-15T00:14:53.037Z,13.20
2017-06-15T00:17:20.930Z,13.10
2017-06-15T00:19:49.340Z,13.10
2017-06-15T00:22:18.630Z,13.00
2017-06-15T00:24:46.305Z,13.00
2017-06-15T00:27:16.309Z,13.00
2017-06-15T00:29:46.939Z,13.00
2017-06-15T00:32:14.576Z,12.90
2017-06-15T00:34:42.384Z,12.90
2017-06-15T00:37:09.948Z,12.90
2017-06-15T00:39:37.518Z,12.90
2017-06-15T00:42:05.073Z,12.90
2017-06-15T00:44:32.659Z,12.80
2017-06-15T00:47:02.812Z,12.70
2017-06-15T00:49:30.980Z,12.70
2017-06-15T00:51:59.336Z,12.70
2017-06-15T00:54:28.040Z,12.70
2017-06-15T00:56:59.814Z,12.60
2017-06-15T00:59:27.377Z,12.60
2017-06-15T01:01:54.938Z,12.60
2017-06-15T01:04:22.630Z,12.50
2017-06-15T01:06:50.215Z,12.40
2017-06-15T01:09:17.939Z,12.40
2017-06-15T01:11:45.539Z,12.50
2017-06-15T01:14:14.200Z,12.40
2017-06-15T01:16:42.744Z,12.40
2017-06-15T01:19:10.837Z,12.40
2017-06-15T01:21:40.091Z,12.30
2017-06-15T01:24:08.563Z,12.30
2017-06-15T01:26:40.054Z,12.30
2017-06-15T01:29:11.843Z,12.30
2017-06-15T01:34:16.752Z,12.30
2017-06-15T01:36:45.866Z,12.40
2017-06-15T01:39:19.606Z,12.50
2017-06-15T01:41:48.969Z,12.50
2017-06-15T01:44:16.537Z,12.50
2017-06-15T01:46:44.095Z,12.50
2017-06-15T01:49:12.670Z,12.50
2017-06-15T01:51:40.996Z,12.50
2017-06-15T01:54:11.511Z,12.60
2017-06-15T01:56:41.734Z,12.60
2017-06-15T01:59:11.704Z,12.70
2017-06-15T02:01:40.323Z,12.70
2017-06-15T02:04:08.801Z,12.70
2017-06-15T02:06:36.444Z,12.60
2017-06-15T02:09:04.000Z,12.60
2017-06-15T02:11:31.586Z,12.50
2017-06-15T02:13:59.149Z,12.50
2017-06-15T02:16:26.750Z,12.50
2017-06-15T02:18:54.321Z,12.50
2017-06-15T02:21:21.900Z,12.50
2017-06-15T02:23:49.461Z,12.50
2017-06-15T02:26:17.047Z,12.60
2017-06-15T02:28:44.611Z,12.60
2017-06-15T02:31:12.415Z,12.60
2017-06-15T02:33:40.077Z,12.60
2017-06-15T02:36:13.584Z,12.70
2017-06-15T02:38:44.361Z,12.70
2017-06-15T02:41:12.094Z,12.80
2017-06-15T02:43:39.663Z,12.80
2017-06-15T02:46:07.259Z,12.70
2017-06-15T02:48:34.809Z,12.70
2017-06-15T02:51:02.348Z,12.60
2017-06-15T02:53:29.930Z,12.60
2017-06-15T02:55:57.497Z,12.60
2017-06-15T02:58:25.046Z,12.60
2017-06-15T03:00:52.634Z,12.60
2017-06-15T03:03:20.198Z,12.60
2017-06-15T03:05:47.811Z,12.60
2017-06-15T03:08:15.386Z,12.60
2017-06-15T03:10:42.936Z,12.60
2017-06-15T03:13:10.482Z,12.60
2017-06-15T03:15:38.069Z,12.70
2017-06-15T03:18:05.639Z,12.60
2017-06-15T03:20:33.212Z,12.50
2017-06-15T03:23:00.812Z,12.40
2017-06-15T03:25:28.361Z,12.20
2017-06-15T03:27:55.913Z,12.20
2017-06-15T03:30:23.494Z,12.20
2017-06-15T03:32:51.053Z,12.20
2017-06-15T03:35:18.600Z,12.10
2017-06-15T03:37:46.295Z,12.10
2017-06-15T03:40:13.860Z,12.20
2017-06-15T03:42:41.427Z,12.20
2017-06-15T03:45:09.003Z,12.20
2017-06-15T03:47:36.537Z,12.20
2017-06-15T03:50:04.103Z,12.20
2017-06-15T03:52:31.670Z,12.40
2017-06-15T03:54:59.219Z,12.40
2017-06-15T03:57:26.780Z,12.50
2017-06-15T03:59:54.341Z,12.60
2017-06-15T04:02:21.896Z,12.70
2017-06-15T04:04:49.464Z,12.80
2017-06-15T04:07:17.762Z,12.90
2017-06-15T04:09:45.315Z,13.00
2017-06-15T04:12:12.865Z,13.20
2017-06-15T04:14:40.443Z,13.30
2017-06-15T04:17:08.002Z,13.50
2017-06-15T04:19:35.548Z,13.60
2017-06-15T04:22:03.137Z,13.80
2017-06-15T04:24:30.699Z,13.90
2017-06-15T04:26:58.259Z,14.30
2017-06-15T04:29:25.878Z,14.70
2017-06-15T04:31:53.422Z,15.00
2017-06-15T04:34:20.986Z,15.20
2017-06-15T04:36:48.583Z,15.60
2017-06-15T04:39:16.129Z,16.10
2017-06-15T04:41:43.677Z,16.50
2017-06-15T04:44:11.235Z,16.90
2017-06-15T04:46:38.773Z,17.00
2017-06-15T04:49:06.329Z,16.90
2017-06-15T04:51:33.897Z,16.80
2017-06-15T04:54:01.440Z,16.80
2017-06-15T04:56:28.982Z,16.70
2017-06-15T04:58:56.551Z,16.70
2017-06-15T05:01:24.108Z,16.60
2017-06-15T05:03:51.654Z,16.60
2017-06-15T05:06:19.195Z,16.50
2017-06-15T05:08:46.764Z,16.50
2017-06-15T05:11:14.306Z,16.60
2017-06-15T05:13:41.909Z,16.80
2017-06-15T05:16:09.462Z,17.30
2017-06-15T05:18:37.028Z,17.80
2017-06-15T05:21:04.617Z,18.30
2017-06-15T05:23:32.165Z,18.90
2017-06-15T05:25:59.700Z,19.80
2017-06-15T05:28:27.269Z,20.70
2017-06-15T05:30:54.847Z,21.40
2017-06-15T05:33:22.426Z,22.20
2017-06-15T05:35:49.994Z,22.50
2017-06-15T05:38:17.544Z,22.60
2017-06-15T05:40:45.108Z,22.90
2017-06-15T05:43:12.695Z,23.00
2017-06-15T05:45:40.242Z,23.30
2017-06-15T05:48:07.815Z,23.40
2017-06-15T05:50:35.413Z,23.50
2017-06-15T05:53:02.976Z,23.90
2017-06-15T05:55:30.519Z,23.60
2017-06-15T05:57:58.114Z,23.90
2017-06-15T06:00:25.674Z,24.20
2017-06-15T06:02:53.219Z,24.80
2017-06-15T06:05:20.826Z,25.00
2017-06-15T06:07:48.390Z,25.50
2017-06-15T06:10:15.951Z,25.80
2017-06-15T06:12:43.551Z,26.00
2017-06-15T06:15:11.083Z,25.70
2017-06-15T06:17:38.645Z,25.70
2017-06-15T06:20:06.227Z,25.50
2017-06-15T06:22:33.836Z,25.40
2017-06-15T06:25:02.706Z,25.40
2017-06-15T06:27:30.356Z,25.00
2017-06-15T06:29:57.920Z,25.10
2017-06-15T06:32:25.533Z,25.40
2017-06-15T06:34:53.127Z,25.60
2017-06-15T06:37:20.671Z,25.90
2017-06-15T06:39:48.247Z,26.00
2017-06-15T06:42:15.837Z,26.20
2017-06-15T06:44:43.413Z,26.40
2017-06-15T06:47:10.972Z,26.80
2017-06-15T06:49:38.565Z,27.00
2017-06-15T06:52:06.145Z,27.50
2017-06-15T06:54:33.711Z,27.50
2017-06-15T06:57:01.284Z,27.80
2017-06-15T06:59:28.878Z,28.00
2017-06-15T07:01:56.433Z,28.50
2017-06-15T07:04:24.033Z,28.90
2017-06-15T07:06:51.597Z,29.70
2017-06-15T07:09:19.276Z,29.50
2017-06-15T07:11:47.870Z,29.60
2017-06-15T07:14:15.439Z,30.10
2017-06-15T07:16:43.046Z,31.00
2017-06-15T07:19:10.625Z,31.80
2017-06-15T07:21:38.196Z,32.20
2017-06-15T07:24:05.749Z,32.40
2017-06-15T07:26:33.395Z,32.10
2017-06-15T07:29:00.952Z,32.30
2017-06-15T07:31:28.526Z,32.60
2017-06-15T07:33:56.091Z,33.10
2017-06-15T07:36:23.681Z,33.10
2017-06-15T07:38:51.279Z,33.20
2017-06-15T07:41:18.850Z,33.10
2017-06-15T07:43:46.471Z,33.50
2017-06-15T07:46:14.055Z,33.60
2017-06-15T07:48:41.681Z,33.00
2017-06-15T07:51:09.721Z,33.40
2017-06-15T07:53:39.432Z,33.80
2017-06-15T07:56:07.044Z,33.90
2017-06-15T07:58:34.582Z,32.80
2017-06-15T08:01:02.122Z,32.70
2017-06-15T08:03:29.704Z,33.10
2017-06-15T08:05:57.329Z,33.10
2017-06-15T08:08:24.921Z,33.50
2017-06-15T08:10:52.504Z,33.40
2017-06-15T08:13:20.061Z,33.20
2017-06-15T08:15:47.617Z,33.60
2017-06-15T08:18:15.177Z,33.30
2017-06-15T08:20:42.879Z,32.90
2017-06-15T08:23:10.507Z,33.30
2017-06-15T08:25:38.496Z,33.40
2017-06-15T08:28:07.055Z,32.80
2017-06-15T08:30:34.609Z,32.80
2017-06-15T08:33:02.184Z,33.00
2017-06-15T08:35:29.736Z,33.70
2017-06-15T08:37:57.803Z,34.50
2017-06-15T08:40:25.526Z,35.50
2017-06-15T08:42:53.094Z,36.50
2017-06-15T08:45:20.616Z,36.40
2017-06-15T08:47:48.180Z,36.10
2017-06-15T08:50:15.728Z,36.00
2017-06-15T08:52:43.295Z,35.70
2017-06-15T08:55:10.963Z,36.00
2017-06-15T08:57:38.812Z,35.20
2017-06-15T09:00:09.041Z,33.60
2017-06-15T09:02:36.843Z,33.40
2017-06-15T09:05:04.604Z,33.10
2017-06-15T09:07:34.275Z,33.70
2017-06-15T09:10:02.521Z,33.40
2017-06-15T09:12:30.389Z,32.80
2017-06-15T09:14:58.174Z,32.10
2017-06-15T09:17:26.835Z,32.40
2017-06-15T09:19:55.637Z,32.40
2017-06-15T09:22:23.897Z,32.50
2017-06-15T09:25:59.974Z,33.60
2017-06-15T09:28:28.595Z,35.60
2017-06-15T09:30:58.203Z,35.60
2017-06-15T09:33:25.959Z,36.10
2017-06-15T09:35:54.566Z,36.80
2017-06-15T09:38:22.483Z,37.90
2017-06-15T09:40:52.067Z,38.50
2017-06-15T09:43:20.325Z,38.20
2017-06-15T09:45:48.501Z,38.80
2017-06-15T09:48:21.830Z,38.20
2017-06-15T09:50:51.968Z,37.50
2017-06-15T09:53:22.235Z,37.40
2017-06-15T09:55:58.333Z,37.20
2017-06-15T09:58:28.598Z,36.40
2017-06-15T10:01:02.547Z,35.50
2017-06-15T10:03:34.148Z,34.50
2017-06-15T10:06:06.430Z,34.40
2017-06-15T10:08:37.104Z,35.40
2017-06-15T10:11:06.103Z,35.30
2017-06-15T10:13:36.326Z,35.70
2017-06-15T10:16:09.362Z,36.40
2017-06-15T10:18:39.173Z,37.00
2017-06-15T10:21:07.764Z,35.10
2017-06-15T10:23:36.827Z,33.90
2017-06-15T10:26:04.568Z,34.30
2017-06-15T10:28:42.143Z,36.20
2017-06-15T10:31:16.280Z,36.10
2017-06-15T10:33:50.290Z,35.10
2017-06-15T10:36:36.027Z,34.00
2017-06-15T10:39:09.306Z,32.50
2017-06-15T10:41:37.155Z,33.20
2017-06-15T10:44:08.272Z,33.00
2017-06-15T10:46:38.213Z,33.00
2017-06-15T10:49:08.717Z,34.00
2017-06-15T10:51:36.395Z,35.40
2017-06-15T10:54:05.208Z,34.50
2017-06-15T10:56:33.746Z,34.40
2017-06-15T10:59:01.629Z,34.60
2017-06-15T11:01:29.534Z,35.00
2017-06-15T11:03:57.698Z,35.30
2017-06-15T11:06:26.269Z,35.80
2017-06-15T11:08:54.936Z,35.20
2017-06-15T11:11:22.835Z,35.10
2017-06-15T11:13:51.498Z,34.20
2017-06-15T11:16:19.339Z,34.20
2017-06-15T11:18:47.260Z,33.80
2017-06-15T11:21:15.222Z,33.60
2017-06-15T11:23:42.994Z,34.50
2017-06-15T11:26:10.675Z,34.30
2017-06-15T11:28:38.802Z,33.80
2017-06-15T11:31:06.651Z,34.20
2017-06-15T11:33:34.963Z,35.50
2017-06-15T11:36:02.497Z,35.40
2017-06-15T11:38:30.145Z,35.20
2017-06-15T11:40:57.721Z,35.20
2017-06-15T11:43:25.330Z,34.60
2017-06-15T11:45:53.942Z,33.80
2017-06-15T11:48:21.506Z,33.60
2017-06-15T11:50:49.099Z,34.80
2017-06-15T11:53:17.691Z,36.00
2017-06-15T11:55:46.211Z,37.30
2017-06-15T11:58:13.793Z,37.30
2017-06-15T12:00:41.414Z,37.50
2017-06-15T12:03:08.968Z,37.20
2017-06-15T12:05:36.546Z,37.30
2017-06-15T12:08:04.334Z,36.10
2017-06-15T12:10:31.916Z,36.20
2017-06-15T12:12:59.555Z,36.40
2017-06-15T12:15:27.154Z,37.10
2017-06-15T12:17:55.706Z,37.80
2017-06-15T12:20:23.587Z,38.40
2017-06-15T12:22:51.176Z,38.40
2017-06-15T12:25:18.738Z,38.30
2017-06-15T12:27:46.291Z,38.50
2017-06-15T12:30:13.887Z,38.90
2017-06-15T12:32:41.465Z,39.40
2017-06-15T12:35:09.015Z,39.20
2017-06-15T12:37:36.643Z,38.30
2017-06-15T12:40:04.195Z,37.80
2017-06-15T12:42:32.513Z,37.60
2017-06-15T12:45:00.087Z,37.60
2017-06-15T12:47:27.635Z,37.60
2017-06-15T12:49:55.621Z,37.80
2017-06-15T12:52:24.232Z,38.30
2017-06-15T12:54:52.071Z,38.30
2017-06-15T12:57:19.679Z,37.90
2017-06-15T12:59:47.249Z,36.80
2017-06-15T13:02:14.817Z,36.00
2017-06-15T13:04:42.389Z,35.40
2017-06-15T13:07:10.746Z,36.20
2017-06-15T13:09:38.312Z,36.20
2017-06-15T13:12:05.865Z,36.60
2017-06-15T13:14:33.483Z,37.00
2017-06-15T13:17:01.077Z,36.80
2017-06-15T13:19:28.655Z,35.80
2017-06-15T13:21:56.290Z,34.90
2017-06-15T13:24:24.622Z,35.90
2017-06-15T13:26:52.166Z,35.90
2017-06-15T13:29:19.764Z,35.90
2017-06-15T13:31:47.374Z,35.10
2017-06-15T13:34:14.920Z,34.20
2017-06-15T13:36:43.284Z,35.10
2017-06-15T13:39:10.863Z,35.00
2017-06-15T13:41:39.210Z,35.30
2017-06-15T13:44:06.794Z,35.30
2017-06-15T13:46:35.124Z,36.50
2017-06-15T13:49:02.797Z,36.50
2017-06-15T13:51:30.420Z,35.70
2017-06-15T13:53:57.950Z,36.00
2017-06-15T13:56:25.520Z,36.80
2017-06-15T13:58:54.775Z,37.10
2017-06-15T14:01:22.329Z,37.70
2017-06-15T14:03:49.883Z,37.60
2017-06-15T14:06:18.244Z,38.20
2017-06-15T14:08:45.848Z,38.20
2017-06-15T14:11:13.427Z,37.30
2017-06-15T14:13:41.040Z,35.60
2017-06-15T14:16:08.611Z,35.50
2017-06-15T14:18:36.161Z,36.60
2017-06-15T14:21:03.735Z,37.60
2017-06-15T14:23:31.321Z,37.50
2017-06-15T14:25:59.657Z,35.40
2017-06-15T14:28:27.240Z,35.40
2017-06-15T14:30:55.636Z,36.70
2017-06-15T14:33:23.221Z,36.70
2017-06-15T14:35:51.652Z,36.70
2017-06-15T14:38:19.251Z,36.70
2017-06-15T14:40:46.791Z,37.00
2017-06-15T14:43:14.326Z,36.70
2017-06-15T14:45:41.974Z,36.60
2017-06-15T14:51:31.120Z,35.00
2017-06-15T14:54:06.662Z,34.00
2017-06-15T14:56:34.385Z,33.50
2017-06-15T14:59:02.167Z,32.50
2017-06-15T15:01:31.188Z,31.40
2017-06-15T15:04:06.635Z,31.00
2017-06-15T15:06:34.306Z,30.80
2017-06-15T15:09:13.791Z,30.50
2017-06-15T15:11:41.464Z,30.30
2017-06-15T15:14:09.121Z,30.20
2017-06-15T15:16:37.743Z,30.10
2017-06-15T15:19:05.339Z,29.90
2017-06-15T15:21:32.959Z,29.70
2017-06-15T15:24:00.545Z,29.70
2017-06-15T15:26:28.150Z,29.40
2017-06-15T15:28:55.775Z,29.00
2017-06-15T15:31:23.354Z,28.70
2017-06-15T15:33:51.181Z,28.50
2017-06-15T15:36:18.812Z,28.30
2017-06-15T15:38:46.427Z,28.30
2017-06-15T15:41:14.587Z,28.20
2017-06-15T15:43:42.203Z,28.10
2017-06-15T15:46:10.390Z,28.00
2017-06-15T15:48:40.049Z,27.80
2017-06-15T15:51:07.747Z,27.50
2017-06-15T15:53:35.462Z,27.20
2017-06-15T15:56:03.101Z,26.90
2017-06-15T15:58:32.402Z,26.60
2017-06-15T16:01:00.070Z,26.20
2017-06-15T16:03:27.685Z,26.00
2017-06-15T16:05:56.282Z,25.90
2017-06-15T16:08:23.910Z,25.60
2017-06-15T16:10:51.483Z,25.60
2017-06-15T16:13:19.217Z,25.70
2017-06-15T16:15:47.846Z,25.70
2017-06-15T16:18:16.763Z,25.80
2017-06-15T16:20:44.440Z,25.90
2017-06-15T16:23:12.087Z,26.00
2017-06-15T16:25:39.715Z,26.00
2017-06-15T16:28:07.295Z,26.10
2017-06-15T16:30:34.939Z,26.40
2017-06-15T16:33:02.592Z,26.40
2017-06-15T16:35:30.184Z,26.50
2017-06-15T16:37:57.857Z,26.60
2017-06-15T16:40:26.409Z,26.70
2017-06-15T16:42:54.694Z,26.80
2017-06-15T16:45:23.170Z,27.10
2017-06-15T16:47:51.053Z,27.20
2017-06-15T16:50:19.205Z,27.10
2017-06-15T16:52:46.866Z,27.10
2017-06-15T16:55:14.772Z,27.20
2017-06-15T16:57:42.539Z,27.20
2017-06-15T17:00:10.234Z,27.10
2017-06-15T17:02:37.996Z,27.00
2017-06-15T17:05:05.629Z,27.00
2017-06-15T17:07:33.257Z,27.00
2017-06-15T17:10:00.921Z,27.10
2017-06-15T17:12:28.797Z,27.20
2017-06-15T17:14:59.089Z,27.40
2017-06-15T17:17:26.767Z,27.40
2017-06-15T17:19:54.344Z,27.30
2017-06-15T17:22:22.022Z,27.30
2017-06-15T17:24:52.620Z,27.30
2017-06-15T17:27:20.259Z,27.20
2017-06-15T17:29:48.656Z,27.10
2017-06-15T17:32:16.294Z,27.00
2017-06-15T17:34:43.910Z,27.00
2017-06-15T17:37:11.523Z,26.90
2017-06-15T17:39:39.108Z,26.80
2017-06-15T17:42:06.694Z,26.70
2017-06-15T17:44:34.345Z,26.70
2017-06-15T17:47:01.941Z,26.60
2017-06-15T17:49:29.570Z,26.50
2017-06-15T17:51:57.214Z,26.30
2017-06-15T17:54:25.827Z,26.10
2017-06-15T17:56:53.464Z,25.90
2017-06-15T17:59:21.092Z,25.80
2017-06-15T18:01:49.317Z,25.60
2017-06-15T18:04:21.321Z,25.50
2017-06-15T18:06:50.630Z,25.30
2017-06-15T18:09:18.332Z,25.20
2017-06-15T18:11:45.972Z,25.10
2017-06-15T18:14:13.679Z,25.00
2017-06-15T18:16:41.869Z,25.00
2017-06-15T18:19:09.700Z,24.90
2017-06-15T18:21:38.188Z,24.70
2017-06-15T18:24:05.932Z,24.60
2017-06-15T18:26:33.871Z,24.50
2017-06-15T18:29:01.574Z,24.40
2017-06-15T18:31:29.658Z,24.30
2017-06-15T18:33:57.317Z,24.20
2017-06-15T18:36:25.027Z,24.10
2017-06-15T18:38:53.361Z,24.00
2017-06-15T18:41:21.040Z,23.90
2017-06-15T18:43:48.704Z,23.80
2017-06-15T18:46:16.417Z,23.70
2017-06-15T18:48:44.921Z,23.50
2017-06-15T18:51:12.609Z,23.40
2017-06-15T18:53:40.330Z,23.30
2017-06-15T18:56:08.844Z,23.30
2017-06-15T18:58:36.626Z,23.30
2017-06-15T19:01:04.311Z,23.30
2017-06-15T19:03:32.798Z,23.20
2017-06-15T19:06:00.469Z,23.10
2017-06-15T19:08:28.161Z,23.20
2017-06-15T19:10:57.566Z,23.20
2017-06-15T19:13:26.035Z,23.10
2017-06-15T19:15:53.776Z,23.10
2017-06-15T19:18:21.693Z,23.00
2017-06-15T19:20:49.697Z,22.80
2017-06-15T19:26:27.802Z,22.50
2017-06-15T19:28:56.805Z,22.30
2017-06-15T19:31:24.547Z,22.10
2017-06-15T19:43:20.903Z,21.50
2017-06-15T19:45:49.530Z,21.30
2017-06-15T19:48:20.267Z,21.30
2017-06-15T19:50:47.950Z,21.30
2017-06-15T19:53:15.675Z,21.30
2017-06-15T19:59:06.134Z,21.30
2017-06-15T20:01:33.940Z,21.30
2017-06-15T20:04:01.804Z,21.30
2017-06-15T20:06:30.065Z,21.30
2017-06-15T20:08:57.748Z,21.40
2017-06-15T20:11:25.563Z,21.30
2017-06-15T20:13:53.569Z,21.30
2017-06-15T20:16:21.290Z,21.30
2017-06-15T20:18:48.989Z,21.20
2017-06-15T20:21:16.798Z,20.90
2017-06-15T20:23:44.691Z,20.40
2017-06-15T22:03:13.169Z,16.70
2017-06-15T22:05:40.875Z,16.70
2017-06-15T22:08:08.683Z,16.60
2017-06-15T22:10:36.450Z,16.60
2017-06-15T22:19:22.055Z,16.50
2017-06-15T22:21:50.497Z,16.40
2017-06-15T22:24:18.024Z,16.40
2017-06-15T22:26:45.578Z,16.50
2017-06-15T22:29:13.152Z,16.50
2017-06-15T22:31:40.767Z,16.50
2017-06-15T22:34:08.341Z,16.50
2017-06-15T22:36:35.883Z,16.50
2017-06-15T22:39:03.515Z,16.40
2017-06-15T22:41:31.100Z,16.40
2017-06-15T22:43:58.694Z,16.40
2017-06-15T22:46:26.239Z,16.30
2017-06-15T22:48:53.812Z,16.30
2017-06-15T22:51:21.432Z,16.30
2017-06-15T22:53:49.560Z,16.40
2017-06-15T22:56:17.320Z,16.30
2017-06-15T22:58:44.912Z,16.40
2017-06-15T23:01:12.491Z,16.40
2017-06-15T23:03:46.221Z,16.40
2017-06-15T23:06:13.787Z,16.40
2017-06-15T23:08:41.343Z,16.50
2017-06-15T23:11:08.953Z,16.50
2017-06-15T23:13:36.522Z,16.50
2017-06-15T23:16:04.100Z,16.50
2017-06-15T23:18:31.707Z,16.50
2017-06-15T23:20:59.267Z,16.50
2017-06-15T23:23:26.836Z,16.40
2017-06-15T23:25:55.752Z,16.40
2017-06-15T23:28:23.284Z,16.40
2017-06-15T23:30:50.836Z,16.40
2017-06-15T23:33:18.413Z,16.40
2017-06-15T23:35:46.011Z,16.30
2017-06-15T23:38:13.615Z,16.30
2017-06-15T23:40:41.214Z,16.30
2017-06-15T23:43:08.783Z,16.40
2017-06-15T23:45:36.349Z,16.50
2017-06-15T23:48:03.972Z,16.60
2017-06-15T23:50:31.521Z,16.70
2017-06-15T23:52:59.102Z,16.70
2017-06-15T23:55:26.707Z,16.80
2017-06-15T23:57:54.278Z,16.90
